sensor_id;sensor_type;location;lat;lon;timestamp;P1;durP1;ratioP1;P2;durP2;ratioP2
11817;SDS011;5966;52.402;5.322;2023-09-18T00:00:54;13.93;;;11.60;;
11817;SDS011;5966;52.402;5.322;2023-09-18T00:03:24;11.87;;;10.60;;
11817;SDS011;5966;52.402;5.322;2023-09-18T00:05:52;13.77;;;11.47;;
11817;SDS011;5966;52.402;5.322;2023-09-18T00:08:31;13.23;;;11.83;;
11817;SDS011;5966;52.402;5.322;2023-09-18T00:11:00;14.67;;;11.37;;
11817;SDS011;5966;52.402;5.322;2023-09-18T00:13:29;14.10;;;11.53;;
11817;SDS011;5966;52.402;5.322;2023-09-18T00:15:57;13.20;;;11.87;;
11817;SDS011;5966;52.402;5.322;2023-09-18T00:18:26;16.87;;;12.53;;
11817;SDS011;5966;52.402;5.322;2023-09-18T00:20:54;12.80;;;11.57;;
11817;SDS011;5966;52.402;5.322;2023-09-18T00:23:27;16.03;;;12.63;;
11817;SDS011;5966;52.402;5.322;2023-09-18T00:26:26;14.80;;;11.50;;
11817;SDS011;5966;52.402;5.322;2023-09-18T00:28:55;15.07;;;13.00;;
11817;SDS011;5966;52.402;5.322;2023-09-18T00:31:23;15.47;;;11.40;;
11817;SDS011;5966;52.402;5.322;2023-09-18T00:33:51;13.10;;;11.73;;
11817;SDS011;5966;52.402;5.322;2023-09-18T00:36:20;11.67;;;10.53;;
11817;SDS011;5966;52.402;5.322;2023-09-18T00:38:50;13.43;;;12.03;;
11817;SDS011;5966;52.402;5.322;2023-09-18T00:41:19;13.30;;;10.63;;
11817;SDS011;5966;52.402;5.322;2023-09-18T00:43:50;12.70;;;11.40;;
11817;SDS011;5966;52.402;5.322;2023-09-18T00:46:18;12.93;;;11.50;;
11817;SDS011;5966;52.402;5.322;2023-09-18T00:48:47;12.90;;;10.53;;
11817;SDS011;5966;52.402;5.322;2023-09-18T00:51:22;11.70;;;10.57;;
11817;SDS011;5966;52.402;5.322;2023-09-18T00:53:53;11.53;;;10.10;;
11817;SDS011;5966;52.402;5.322;2023-09-18T00:56:21;10.70;;;9.43;;
11817;SDS011;5966;52.402;5.322;2023-09-18T00:58:51;13.20;;;9.97;;
11817;SDS011;5966;52.402;5.322;2023-09-18T01:01:22;13.47;;;10.43;;
11817;SDS011;5966;52.402;5.322;2023-09-18T01:03:53;10.97;;;9.87;;
11817;SDS011;5966;52.402;5.322;2023-09-18T01:06:21;10.30;;;9.40;;
11817;SDS011;5966;52.402;5.322;2023-09-18T01:08:55;11.40;;;10.30;;
11817;SDS011;5966;52.402;5.322;2023-09-18T01:11:30;9.33;;;8.23;;
11817;SDS011;5966;52.402;5.322;2023-09-18T01:14:19;9.73;;;8.83;;
11817;SDS011;5966;52.402;5.322;2023-09-18T01:17:09;10.93;;;9.70;;
11817;SDS011;5966;52.402;5.322;2023-09-18T01:19:44;10.80;;;9.80;;
11817;SDS011;5966;52.402;5.322;2023-09-18T01:22:13;11.07;;;9.97;;
11817;SDS011;5966;52.402;5.322;2023-09-18T01:24:45;13.60;;;10.57;;
11817;SDS011;5966;52.402;5.322;2023-09-18T01:27:15;11.60;;;9.93;;
11817;SDS011;5966;52.402;5.322;2023-09-18T01:29:45;11.40;;;10.00;;
11817;SDS011;5966;52.402;5.322;2023-09-18T01:32:14;10.37;;;9.37;;
11817;SDS011;5966;52.402;5.322;2023-09-18T01:34:45;10.10;;;9.13;;
11817;SDS011;5966;52.402;5.322;2023-09-18T01:37:16;11.67;;;10.20;;
11817;SDS011;5966;52.402;5.322;2023-09-18T01:39:51;10.83;;;9.03;;
11817;SDS011;5966;52.402;5.322;2023-09-18T01:42:20;11.30;;;9.27;;
11817;SDS011;5966;52.402;5.322;2023-09-18T01:44:51;9.53;;;8.63;;
11817;SDS011;5966;52.402;5.322;2023-09-18T01:47:25;10.83;;;8.93;;
11817;SDS011;5966;52.402;5.322;2023-09-18T01:49:54;10.40;;;9.27;;
11817;SDS011;5966;52.402;5.322;2023-09-18T01:52:24;9.53;;;8.53;;
11817;SDS011;5966;52.402;5.322;2023-09-18T01:54:55;10.83;;;9.63;;
11817;SDS011;5966;52.402;5.322;2023-09-18T01:57:24;9.97;;;8.80;;
11817;SDS011;5966;52.402;5.322;2023-09-18T01:59:53;9.10;;;8.20;;
11817;SDS011;5966;52.402;5.322;2023-09-18T02:02:21;10.87;;;8.80;;
11817;SDS011;5966;52.402;5.322;2023-09-18T02:05:07;10.33;;;9.17;;
11817;SDS011;5966;52.402;5.322;2023-09-18T02:07:41;10.40;;;8.83;;
11817;SDS011;5966;52.402;5.322;2023-09-18T02:10:10;13.03;;;8.47;;
11817;SDS011;5966;52.402;5.322;2023-09-18T02:12:42;8.50;;;7.70;;
11817;SDS011;5966;52.402;5.322;2023-09-18T02:15:10;8.57;;;7.67;;
11817;SDS011;5966;52.402;5.322;2023-09-18T02:17:40;9.93;;;8.80;;
11817;SDS011;5966;52.402;5.322;2023-09-18T02:20:09;9.10;;;8.10;;
11817;SDS011;5966;52.402;5.322;2023-09-18T02:22:38;10.87;;;8.50;;
11817;SDS011;5966;52.402;5.322;2023-09-18T02:25:08;10.97;;;8.10;;
11817;SDS011;5966;52.402;5.322;2023-09-18T02:27:37;8.93;;;8.03;;
11817;SDS011;5966;52.402;5.322;2023-09-18T02:30:06;10.30;;;9.30;;
11817;SDS011;5966;52.402;5.322;2023-09-18T02:32:37;11.07;;;9.47;;
11817;SDS011;5966;52.402;5.322;2023-09-18T02:35:06;10.60;;;9.50;;
11817;SDS011;5966;52.402;5.322;2023-09-18T02:37:35;11.60;;;9.13;;
11817;SDS011;5966;52.402;5.322;2023-09-18T02:40:03;11.53;;;10.03;;
11817;SDS011;5966;52.402;5.322;2023-09-18T02:42:34;9.87;;;8.87;;
11817;SDS011;5966;52.402;5.322;2023-09-18T02:45:04;11.57;;;9.50;;
11817;SDS011;5966;52.402;5.322;2023-09-18T02:47:34;10.97;;;9.50;;
11817;SDS011;5966;52.402;5.322;2023-09-18T02:50:05;10.67;;;9.60;;
11817;SDS011;5966;52.402;5.322;2023-09-18T02:52:35;12.33;;;9.87;;
11817;SDS011;5966;52.402;5.322;2023-09-18T02:55:03;10.77;;;9.67;;
11817;SDS011;5966;52.402;5.322;2023-09-18T02:57:32;12.93;;;9.50;;
11817;SDS011;5966;52.402;5.322;2023-09-18T03:00:00;11.70;;;8.73;;
11817;SDS011;5966;52.402;5.322;2023-09-18T03:02:31;12.13;;;8.57;;
11817;SDS011;5966;52.402;5.322;2023-09-18T03:04:59;10.53;;;8.70;;
11817;SDS011;5966;52.402;5.322;2023-09-18T03:07:28;10.10;;;8.33;;
11817;SDS011;5966;52.402;5.322;2023-09-18T03:09:56;13.93;;;8.90;;
11817;SDS011;5966;52.402;5.322;2023-09-18T03:12:32;11.37;;;8.80;;
11817;SDS011;5966;52.402;5.322;2023-09-18T03:15:01;9.17;;;7.80;;
11817;SDS011;5966;52.402;5.322;2023-09-18T03:17:32;10.63;;;9.03;;
11817;SDS011;5966;52.402;5.322;2023-09-18T03:20:00;10.27;;;8.43;;
11817;SDS011;5966;52.402;5.322;2023-09-18T03:22:29;8.90;;;8.00;;
11817;SDS011;5966;52.402;5.322;2023-09-18T03:24:57;11.50;;;8.97;;
11817;SDS011;5966;52.402;5.322;2023-09-18T03:27:25;10.20;;;8.30;;
11817;SDS011;5966;52.402;5.322;2023-09-18T03:29:55;11.37;;;8.47;;
11817;SDS011;5966;52.402;5.322;2023-09-18T03:32:26;9.60;;;8.60;;
11817;SDS011;5966;52.402;5.322;2023-09-18T03:35:21;9.47;;;8.53;;
11817;SDS011;5966;52.402;5.322;2023-09-18T03:37:50;10.70;;;8.57;;
11817;SDS011;5966;52.402;5.322;2023-09-18T03:40:20;9.53;;;8.50;;
11817;SDS011;5966;52.402;5.322;2023-09-18T03:42:48;13.40;;;8.47;;
11817;SDS011;5966;52.402;5.322;2023-09-18T03:45:17;9.83;;;8.43;;
11817;SDS011;5966;52.402;5.322;2023-09-18T03:47:46;10.37;;;8.67;;
11817;SDS011;5966;52.402;5.322;2023-09-18T03:50:16;9.80;;;8.80;;
11817;SDS011;5966;52.402;5.322;2023-09-18T03:53:10;9.17;;;8.27;;
11817;SDS011;5966;52.402;5.322;2023-09-18T03:55:39;11.43;;;8.97;;
11817;SDS011;5966;52.402;5.322;2023-09-18T03:58:07;12.37;;;8.87;;
11817;SDS011;5966;52.402;5.322;2023-09-18T04:00:36;9.60;;;8.60;;
11817;SDS011;5966;52.402;5.322;2023-09-18T04:03:04;10.90;;;8.60;;
11817;SDS011;5966;52.402;5.322;2023-09-18T04:05:33;10.20;;;9.00;;
11817;SDS011;5966;52.402;5.322;2023-09-18T04:08:02;10.40;;;9.37;;
11817;SDS011;5966;52.402;5.322;2023-09-18T04:10:31;10.47;;;9.47;;
11817;SDS011;5966;52.402;5.322;2023-09-18T04:12:59;12.80;;;9.20;;
11817;SDS011;5966;52.402;5.322;2023-09-18T04:15:27;11.07;;;9.87;;
11817;SDS011;5966;52.402;5.322;2023-09-18T04:17:57;10.80;;;9.70;;
11817;SDS011;5966;52.402;5.322;2023-09-18T04:20:25;10.30;;;9.00;;
11817;SDS011;5966;52.402;5.322;2023-09-18T04:25:49;12.13;;;10.47;;
11817;SDS011;5966;52.402;5.322;2023-09-18T04:28:18;13.57;;;10.60;;
11817;SDS011;5966;52.402;5.322;2023-09-18T04:30:47;11.23;;;10.07;;
11817;SDS011;5966;52.402;5.322;2023-09-18T04:33:16;13.17;;;10.77;;
11817;SDS011;5966;52.402;5.322;2023-09-18T04:35:45;12.30;;;10.97;;
11817;SDS011;5966;52.402;5.322;2023-09-18T04:38:13;12.40;;;10.20;;
11817;SDS011;5966;52.402;5.322;2023-09-18T04:40:43;14.73;;;10.23;;
11817;SDS011;5966;52.402;5.322;2023-09-18T04:43:12;11.47;;;10.20;;
11817;SDS011;5966;52.402;5.322;2023-09-18T04:45:40;11.83;;;10.67;;
11817;SDS011;5966;52.402;5.322;2023-09-18T04:48:09;13.87;;;10.23;;
11817;SDS011;5966;52.402;5.322;2023-09-18T04:50:37;11.83;;;10.57;;
11817;SDS011;5966;52.402;5.322;2023-09-18T04:53:06;10.60;;;9.37;;
11817;SDS011;5966;52.402;5.322;2023-09-18T04:55:35;10.10;;;8.03;;
11817;SDS011;5966;52.402;5.322;2023-09-18T04:58:06;13.70;;;7.87;;
11817;SDS011;5966;52.402;5.322;2023-09-18T05:00:34;6.83;;;6.20;;
11817;SDS011;5966;52.402;5.322;2023-09-18T05:03:03;4.80;;;4.40;;
11817;SDS011;5966;52.402;5.322;2023-09-18T05:05:32;6.33;;;4.73;;
11817;SDS011;5966;52.402;5.322;2023-09-18T05:08:01;6.70;;;4.03;;
11817;SDS011;5966;52.402;5.322;2023-09-18T05:10:31;3.67;;;2.70;;
11817;SDS011;5966;52.402;5.322;2023-09-18T05:12:59;3.07;;;2.20;;
11817;SDS011;5966;52.402;5.322;2023-09-18T05:15:29;5.73;;;1.93;;
11817;SDS011;5966;52.402;5.322;2023-09-18T05:17:58;5.23;;;2.40;;
11817;SDS011;5966;52.402;5.322;2023-09-18T05:20:28;5.27;;;2.23;;
11817;SDS011;5966;52.402;5.322;2023-09-18T05:22:57;3.00;;;1.90;;
11817;SDS011;5966;52.402;5.322;2023-09-18T05:25:27;4.80;;;2.07;;
11817;SDS011;5966;52.402;5.322;2023-09-18T05:27:58;4.17;;;1.90;;
11817;SDS011;5966;52.402;5.322;2023-09-18T05:30:32;4.13;;;1.97;;
11817;SDS011;5966;52.402;5.322;2023-09-18T05:33:05;5.73;;;2.10;;
11817;SDS011;5966;52.402;5.322;2023-09-18T05:35:35;3.83;;;1.70;;
11817;SDS011;5966;52.402;5.322;2023-09-18T05:38:07;2.60;;;1.93;;
11817;SDS011;5966;52.402;5.322;2023-09-18T05:40:36;3.10;;;2.00;;
11817;SDS011;5966;52.402;5.322;2023-09-18T05:43:04;4.07;;;2.13;;
11817;SDS011;5966;52.402;5.322;2023-09-18T05:45:35;6.03;;;2.33;;
11817;SDS011;5966;52.402;5.322;2023-09-18T05:48:03;3.90;;;2.10;;
11817;SDS011;5966;52.402;5.322;2023-09-18T05:50:32;4.20;;;2.57;;
11817;SDS011;5966;52.402;5.322;2023-09-18T05:53:02;5.40;;;2.50;;
11817;SDS011;5966;52.402;5.322;2023-09-18T05:55:31;4.13;;;2.50;;
11817;SDS011;5966;52.402;5.322;2023-09-18T05:58:01;3.97;;;2.57;;
11817;SDS011;5966;52.402;5.322;2023-09-18T06:00:31;4.87;;;2.57;;
11817;SDS011;5966;52.402;5.322;2023-09-18T06:03:01;6.43;;;3.30;;
11817;SDS011;5966;52.402;5.322;2023-09-18T06:05:29;6.53;;;3.30;;
11817;SDS011;5966;52.402;5.322;2023-09-18T06:08:00;5.43;;;3.50;;
11817;SDS011;5966;52.402;5.322;2023-09-18T06:10:28;4.50;;;3.40;;
11817;SDS011;5966;52.402;5.322;2023-09-18T06:12:57;7.80;;;3.30;;
11817;SDS011;5966;52.402;5.322;2023-09-18T06:15:33;3.87;;;3.03;;
11817;SDS011;5966;52.402;5.322;2023-09-18T06:18:15;4.10;;;3.53;;
11817;SDS011;5966;52.402;5.322;2023-09-18T06:20:45;6.63;;;3.97;;
11817;SDS011;5966;52.402;5.322;2023-09-18T06:23:14;6.70;;;4.30;;
11817;SDS011;5966;52.402;5.322;2023-09-18T06:25:45;6.60;;;3.93;;
11817;SDS011;5966;52.402;5.322;2023-09-18T06:28:15;5.57;;;3.70;;
11817;SDS011;5966;52.402;5.322;2023-09-18T06:30:45;8.47;;;4.80;;
11817;SDS011;5966;52.402;5.322;2023-09-18T06:33:15;6.67;;;4.33;;
11817;SDS011;5966;52.402;5.322;2023-09-18T06:35:44;4.10;;;3.23;;
11817;SDS011;5966;52.402;5.322;2023-09-18T06:38:12;3.93;;;3.60;;
11817;SDS011;5966;52.402;5.322;2023-09-18T06:40:43;6.30;;;3.90;;
11817;SDS011;5966;52.402;5.322;2023-09-18T06:43:16;4.03;;;3.63;;
11817;SDS011;5966;52.402;5.322;2023-09-18T06:46:01;4.93;;;4.53;;
11817;SDS011;5966;52.402;5.322;2023-09-18T06:48:31;7.27;;;3.97;;
11817;SDS011;5966;52.402;5.322;2023-09-18T06:51:00;4.63;;;3.63;;
11817;SDS011;5966;52.402;5.322;2023-09-18T06:53:28;4.10;;;3.80;;
11817;SDS011;5966;52.402;5.322;2023-09-18T06:55:59;6.93;;;4.17;;
11817;SDS011;5966;52.402;5.322;2023-09-18T06:58:27;4.33;;;3.93;;
11817;SDS011;5966;52.402;5.322;2023-09-18T07:00:55;5.60;;;4.20;;
11817;SDS011;5966;52.402;5.322;2023-09-18T07:03:24;4.63;;;4.17;;
11817;SDS011;5966;52.402;5.322;2023-09-18T07:05:55;6.63;;;4.47;;
11817;SDS011;5966;52.402;5.322;2023-09-18T07:08:24;6.40;;;4.13;;
11817;SDS011;5966;52.402;5.322;2023-09-18T07:10:59;6.60;;;4.80;;
11817;SDS011;5966;52.402;5.322;2023-09-18T07:13:36;5.30;;;4.53;;
11817;SDS011;5966;52.402;5.322;2023-09-18T07:16:15;7.90;;;4.60;;
11817;SDS011;5966;52.402;5.322;2023-09-18T07:18:43;6.97;;;4.83;;
11817;SDS011;5966;52.402;5.322;2023-09-18T07:21:15;7.03;;;5.60;;
11817;SDS011;5966;52.402;5.322;2023-09-18T07:23:45;6.13;;;4.70;;
11817;SDS011;5966;52.402;5.322;2023-09-18T07:26:18;5.80;;;4.77;;
11817;SDS011;5966;52.402;5.322;2023-09-18T07:28:47;6.57;;;4.90;;
11817;SDS011;5966;52.402;5.322;2023-09-18T07:31:17;6.53;;;5.17;;
11817;SDS011;5966;52.402;5.322;2023-09-18T07:33:54;6.13;;;4.80;;
11817;SDS011;5966;52.402;5.322;2023-09-18T07:36:31;6.30;;;4.80;;
11817;SDS011;5966;52.402;5.322;2023-09-18T07:39:10;6.20;;;5.63;;
11817;SDS011;5966;52.402;5.322;2023-09-18T07:41:57;7.63;;;5.60;;
11817;SDS011;5966;52.402;5.322;2023-09-18T07:44:36;5.67;;;5.03;;
11817;SDS011;5966;52.402;5.322;2023-09-18T07:47:04;7.50;;;4.97;;
11817;SDS011;5966;52.402;5.322;2023-09-18T07:49:33;6.57;;;5.43;;
11817;SDS011;5966;52.402;5.322;2023-09-18T07:52:03;5.17;;;4.57;;
11817;SDS011;5966;52.402;5.322;2023-09-18T07:54:31;9.23;;;4.70;;
11817;SDS011;5966;52.402;5.322;2023-09-18T07:57:03;9.53;;;5.00;;
11817;SDS011;5966;52.402;5.322;2023-09-18T07:59:52;7.03;;;5.00;;
11817;SDS011;5966;52.402;5.322;2023-09-18T08:02:36;5.97;;;4.67;;
11817;SDS011;5966;52.402;5.322;2023-09-18T08:05:07;6.33;;;5.77;;
11817;SDS011;5966;52.402;5.322;2023-09-18T08:07:38;4.77;;;4.20;;
11817;SDS011;5966;52.402;5.322;2023-09-18T08:10:07;4.90;;;4.37;;
11817;SDS011;5966;52.402;5.322;2023-09-18T08:12:41;7.53;;;4.70;;
11817;SDS011;5966;52.402;5.322;2023-09-18T08:15:21;5.40;;;4.50;;
11817;SDS011;5966;52.402;5.322;2023-09-18T08:18:14;6.40;;;4.43;;
11817;SDS011;5966;52.402;5.322;2023-09-18T08:20:45;5.93;;;4.60;;
11817;SDS011;5966;52.402;5.322;2023-09-18T08:23:25;5.23;;;4.73;;
11817;SDS011;5966;52.402;5.322;2023-09-18T08:26:01;6.30;;;5.03;;
11817;SDS011;5966;52.402;5.322;2023-09-18T08:28:30;6.83;;;5.30;;
11817;SDS011;5966;52.402;5.322;2023-09-18T08:30:58;6.90;;;5.43;;
11817;SDS011;5966;52.402;5.322;2023-09-18T08:33:27;6.10;;;5.07;;
11817;SDS011;5966;52.402;5.322;2023-09-18T08:35:56;8.77;;;5.30;;
11817;SDS011;5966;52.402;5.322;2023-09-18T08:38:26;5.63;;;4.80;;
11817;SDS011;5966;52.402;5.322;2023-09-18T08:40:59;4.97;;;4.47;;
11817;SDS011;5966;52.402;5.322;2023-09-18T08:44:26;7.70;;;5.00;;
11817;SDS011;5966;52.402;5.322;2023-09-18T08:47:16;6.07;;;4.73;;
11817;SDS011;5966;52.402;5.322;2023-09-18T08:50:52;4.90;;;4.40;;
11817;SDS011;5966;52.402;5.322;2023-09-18T08:54:24;5.13;;;4.00;;
11817;SDS011;5966;52.402;5.322;2023-09-18T08:56:57;5.83;;;4.43;;
11817;SDS011;5966;52.402;5.322;2023-09-18T08:59:52;5.60;;;4.00;;
11817;SDS011;5966;52.402;5.322;2023-09-18T09:02:28;5.33;;;4.43;;
11817;SDS011;5966;52.402;5.322;2023-09-18T09:05:00;6.80;;;4.60;;
11817;SDS011;5966;52.402;5.322;2023-09-18T09:07:35;5.30;;;4.80;;
11817;SDS011;5966;52.402;5.322;2023-09-18T09:10:17;5.40;;;4.80;;
11817;SDS011;5966;52.402;5.322;2023-09-18T09:12:49;6.50;;;4.63;;
11817;SDS011;5966;52.402;5.322;2023-09-18T09:15:28;4.80;;;4.40;;
11817;SDS011;5966;52.402;5.322;2023-09-18T09:18:30;4.90;;;4.50;;
11817;SDS011;5966;52.402;5.322;2023-09-18T09:21:08;6.07;;;3.90;;
11817;SDS011;5966;52.402;5.322;2023-09-18T09:23:47;4.93;;;4.43;;
11817;SDS011;5966;52.402;5.322;2023-09-18T09:26:22;4.70;;;3.67;;
11817;SDS011;5966;52.402;5.322;2023-09-18T09:28:53;6.73;;;4.20;;
11817;SDS011;5966;52.402;5.322;2023-09-18T09:32:14;5.17;;;4.00;;
11817;SDS011;5966;52.402;5.322;2023-09-18T09:35:32;6.83;;;4.17;;
11817;SDS011;5966;52.402;5.322;2023-09-18T09:38:33;6.57;;;4.10;;
11817;SDS011;5966;52.402;5.322;2023-09-18T09:41:03;5.07;;;4.20;;
11817;SDS011;5966;52.402;5.322;2023-09-18T09:43:41;6.37;;;3.97;;
11817;SDS011;5966;52.402;5.322;2023-09-18T09:46:14;5.47;;;4.23;;
11817;SDS011;5966;52.402;5.322;2023-09-18T09:48:59;4.87;;;4.13;;
11817;SDS011;5966;52.402;5.322;2023-09-18T09:51:28;4.10;;;3.70;;
11817;SDS011;5966;52.402;5.322;2023-09-18T09:53:57;5.80;;;4.13;;
11817;SDS011;5966;52.402;5.322;2023-09-18T09:56:40;5.10;;;3.77;;
11817;SDS011;5966;52.402;5.322;2023-09-18T09:59:11;4.10;;;3.70;;
11817;SDS011;5966;52.402;5.322;2023-09-18T10:01:43;4.63;;;3.50;;
11817;SDS011;5966;52.402;5.322;2023-09-18T10:04:18;4.37;;;3.97;;
11817;SDS011;5966;52.402;5.322;2023-09-18T10:06:51;5.17;;;3.63;;
11817;SDS011;5966;52.402;5.322;2023-09-18T10:09:20;4.13;;;3.40;;
11817;SDS011;5966;52.402;5.322;2023-09-18T10:11:56;6.37;;;3.30;;
11817;SDS011;5966;52.402;5.322;2023-09-18T10:14:29;7.93;;;3.40;;
11817;SDS011;5966;52.402;5.322;2023-09-18T10:17:17;4.93;;;3.63;;
11817;SDS011;5966;52.402;5.322;2023-09-18T10:19:49;3.73;;;3.30;;
11817;SDS011;5966;52.402;5.322;2023-09-18T10:22:37;6.33;;;3.13;;
11817;SDS011;5966;52.402;5.322;2023-09-18T10:25:11;5.70;;;3.80;;
11817;SDS011;5966;52.402;5.322;2023-09-18T10:27:51;5.80;;;3.17;;
11817;SDS011;5966;52.402;5.322;2023-09-18T10:30:26;4.30;;;3.47;;
11817;SDS011;5966;52.402;5.322;2023-09-18T10:32:58;4.53;;;3.07;;
11817;SDS011;5966;52.402;5.322;2023-09-18T10:35:27;5.90;;;3.00;;
11817;SDS011;5966;52.402;5.322;2023-09-18T10:37:56;4.67;;;2.93;;
11817;SDS011;5966;52.402;5.322;2023-09-18T10:40:29;2.80;;;2.60;;
11817;SDS011;5966;52.402;5.322;2023-09-18T10:42:58;4.37;;;2.80;;
11817;SDS011;5966;52.402;5.322;2023-09-18T10:45:31;4.90;;;2.90;;
11817;SDS011;5966;52.402;5.322;2023-09-18T10:48:01;3.40;;;3.10;;
11817;SDS011;5966;52.402;5.322;2023-09-18T10:50:30;4.43;;;2.73;;
11817;SDS011;5966;52.402;5.322;2023-09-18T10:52:58;2.60;;;2.40;;
11817;SDS011;5966;52.402;5.322;2023-09-18T10:55:27;3.30;;;2.73;;
11817;SDS011;5966;52.402;5.322;2023-09-18T10:57:55;3.07;;;2.77;;
11817;SDS011;5966;52.402;5.322;2023-09-18T11:00:26;3.20;;;2.87;;
11817;SDS011;5966;52.402;5.322;2023-09-18T11:03:10;2.90;;;2.67;;
11817;SDS011;5966;52.402;5.322;2023-09-18T11:05:44;4.30;;;2.70;;
11817;SDS011;5966;52.402;5.322;2023-09-18T11:08:29;3.40;;;2.90;;
11817;SDS011;5966;52.402;5.322;2023-09-18T11:11:01;4.00;;;2.83;;
11817;SDS011;5966;52.402;5.322;2023-09-18T11:13:46;5.10;;;3.50;;
11817;SDS011;5966;52.402;5.322;2023-09-18T11:16:35;3.30;;;3.00;;
11817;SDS011;5966;52.402;5.322;2023-09-18T11:19:09;3.27;;;2.80;;
11817;SDS011;5966;52.402;5.322;2023-09-18T11:21:41;4.13;;;3.17;;
11817;SDS011;5966;52.402;5.322;2023-09-18T11:24:15;5.60;;;2.93;;
11817;SDS011;5966;52.402;5.322;2023-09-18T11:26:45;3.23;;;2.90;;
11817;SDS011;5966;52.402;5.322;2023-09-18T11:29:15;3.63;;;3.27;;
11817;SDS011;5966;52.402;5.322;2023-09-18T11:31:47;4.27;;;2.53;;
11817;SDS011;5966;52.402;5.322;2023-09-18T11:34:24;5.97;;;3.27;;
11817;SDS011;5966;52.402;5.322;2023-09-18T11:36:58;2.73;;;2.53;;
11817;SDS011;5966;52.402;5.322;2023-09-18T11:39:35;4.63;;;2.90;;
11817;SDS011;5966;52.402;5.322;2023-09-18T11:42:10;3.30;;;2.70;;
11817;SDS011;5966;52.402;5.322;2023-09-18T11:44:41;3.77;;;2.53;;
11817;SDS011;5966;52.402;5.322;2023-09-18T11:47:24;3.17;;;2.53;;
11817;SDS011;5966;52.402;5.322;2023-09-18T11:50:10;3.63;;;2.77;;
11817;SDS011;5966;52.402;5.322;2023-09-18T11:52:43;4.13;;;2.87;;
11817;SDS011;5966;52.402;5.322;2023-09-18T11:55:13;3.40;;;2.50;;
11817;SDS011;5966;52.402;5.322;2023-09-18T11:57:41;5.30;;;3.00;;
11817;SDS011;5966;52.402;5.322;2023-09-18T12:00:19;3.13;;;2.45;;
11817;SDS011;5966;52.402;5.322;2023-09-18T12:02:54;4.40;;;2.60;;
11817;SDS011;5966;52.402;5.322;2023-09-18T12:05:28;3.23;;;2.53;;
11817;SDS011;5966;52.402;5.322;2023-09-18T12:07:56;3.00;;;2.70;;
11817;SDS011;5966;52.402;5.322;2023-09-18T12:10:30;2.50;;;2.30;;
11817;SDS011;5966;52.402;5.322;2023-09-18T12:13:08;2.90;;;2.60;;
11817;SDS011;5966;52.402;5.322;2023-09-18T12:15:41;3.00;;;2.77;;
11817;SDS011;5966;52.402;5.322;2023-09-18T12:18:44;3.07;;;2.87;;
11817;SDS011;5966;52.402;5.322;2023-09-18T12:21:50;5.17;;;3.40;;
11817;SDS011;5966;52.402;5.322;2023-09-18T12:24:22;4.10;;;3.50;;
11817;SDS011;5966;52.402;5.322;2023-09-18T12:26:57;4.13;;;2.97;;
11817;SDS011;5966;52.402;5.322;2023-09-18T12:29:42;3.83;;;2.90;;
11817;SDS011;5966;52.402;5.322;2023-09-18T12:32:16;5.90;;;3.07;;
11817;SDS011;5966;52.402;5.322;2023-09-18T12:34:46;3.50;;;3.20;;
11817;SDS011;5966;52.402;5.322;2023-09-18T12:37:16;5.07;;;3.30;;
11817;SDS011;5966;52.402;5.322;2023-09-18T12:39:44;6.63;;;3.33;;
11817;SDS011;5966;52.402;5.322;2023-09-18T12:42:13;4.63;;;2.97;;
11817;SDS011;5966;52.402;5.322;2023-09-18T12:44:41;2.50;;;2.30;;
11817;SDS011;5966;52.402;5.322;2023-09-18T12:47:09;3.17;;;2.80;;
11817;SDS011;5966;52.402;5.322;2023-09-18T12:49:58;3.40;;;2.50;;
11817;SDS011;5966;52.402;5.322;2023-09-18T12:55:52;3.20;;;2.90;;
11817;SDS011;5966;52.402;5.322;2023-09-18T13:01:14;3.00;;;2.47;;
11817;SDS011;5966;52.402;5.322;2023-09-18T13:03:44;4.63;;;2.40;;
11817;SDS011;5966;52.402;5.322;2023-09-18T13:06:19;2.90;;;2.60;;
11817;SDS011;5966;52.402;5.322;2023-09-18T13:08:47;3.17;;;2.70;;
11817;SDS011;5966;52.402;5.322;2023-09-18T13:11:20;2.90;;;2.40;;
11817;SDS011;5966;52.402;5.322;2023-09-18T13:16:28;6.53;;;2.97;;
11817;SDS011;5966;52.402;5.322;2023-09-18T13:19:03;3.13;;;2.50;;
11817;SDS011;5966;52.402;5.322;2023-09-18T13:21:33;3.03;;;2.73;;
11817;SDS011;5966;52.402;5.322;2023-09-18T13:24:24;4.03;;;2.90;;
11817;SDS011;5966;52.402;5.322;2023-09-18T13:27:25;5.83;;;2.80;;
11817;SDS011;5966;52.402;5.322;2023-09-18T13:29:53;3.97;;;2.77;;
11817;SDS011;5966;52.402;5.322;2023-09-18T13:32:23;3.77;;;2.70;;
11817;SDS011;5966;52.402;5.322;2023-09-18T13:34:52;3.60;;;2.73;;
11817;SDS011;5966;52.402;5.322;2023-09-18T13:37:22;7.90;;;3.23;;
11817;SDS011;5966;52.402;5.322;2023-09-18T13:39:51;3.53;;;2.50;;
11817;SDS011;5966;52.402;5.322;2023-09-18T13:42:19;5.47;;;2.50;;
11817;SDS011;5966;52.402;5.322;2023-09-18T13:44:47;4.47;;;2.33;;
11817;SDS011;5966;52.402;5.322;2023-09-18T13:47:19;3.37;;;2.43;;
11817;SDS011;5966;52.402;5.322;2023-09-18T13:52:24;3.17;;;2.50;;
11817;SDS011;5966;52.402;5.322;2023-09-18T13:54:54;4.67;;;2.50;;
11817;SDS011;5966;52.402;5.322;2023-09-18T13:57:28;3.37;;;2.40;;
11817;SDS011;5966;52.402;5.322;2023-09-18T14:00:10;4.97;;;2.70;;
11817;SDS011;5966;52.402;5.322;2023-09-18T14:02:40;4.73;;;2.60;;
11817;SDS011;5966;52.402;5.322;2023-09-18T14:05:09;5.30;;;2.93;;
11817;SDS011;5966;52.402;5.322;2023-09-18T14:07:46;4.13;;;3.13;;
11817;SDS011;5966;52.402;5.322;2023-09-18T14:10:16;4.77;;;3.63;;
11817;SDS011;5966;52.402;5.322;2023-09-18T14:12:51;4.90;;;3.20;;
11817;SDS011;5966;52.402;5.322;2023-09-18T14:15:39;4.03;;;2.73;;
11817;SDS011;5966;52.402;5.322;2023-09-18T14:18:08;3.33;;;3.00;;
11817;SDS011;5966;52.402;5.322;2023-09-18T14:20:52;3.53;;;3.07;;
11817;SDS011;5966;52.402;5.322;2023-09-18T14:23:24;3.17;;;2.80;;
11817;SDS011;5966;52.402;5.322;2023-09-18T14:28:28;5.33;;;3.00;;
11817;SDS011;5966;52.402;5.322;2023-09-18T14:36:44;4.93;;;2.77;;
11817;SDS011;5966;52.402;5.322;2023-09-18T14:51:07;3.67;;;2.50;;
11817;SDS011;5966;52.402;5.322;2023-09-18T14:53:47;4.80;;;2.17;;
11817;SDS011;5966;52.402;5.322;2023-09-18T14:56:24;5.23;;;2.17;;
11817;SDS011;5966;52.402;5.322;2023-09-18T14:58:57;2.73;;;2.20;;
11817;SDS011;5966;52.402;5.322;2023-09-18T15:01:27;2.10;;;1.80;;
11817;SDS011;5966;52.402;5.322;2023-09-18T15:04:01;2.23;;;1.70;;
11817;SDS011;5966;52.402;5.322;2023-09-18T15:06:32;3.13;;;2.10;;
11817;SDS011;5966;52.402;5.322;2023-09-18T15:09:04;5.10;;;2.10;;
11817;SDS011;5966;52.402;5.322;2023-09-18T15:11:48;4.60;;;2.53;;
11817;SDS011;5966;52.402;5.322;2023-09-18T15:14:24;3.80;;;2.00;;
11817;SDS011;5966;52.402;5.322;2023-09-18T15:17:13;4.17;;;2.43;;
11817;SDS011;5966;52.402;5.322;2023-09-18T15:19:44;2.73;;;2.10;;
11817;SDS011;5966;52.402;5.322;2023-09-18T15:22:15;3.67;;;1.90;;
11817;SDS011;5966;52.402;5.322;2023-09-18T15:27:36;3.70;;;2.30;;
11817;SDS011;5966;52.402;5.322;2023-09-18T15:30:05;2.37;;;1.37;;
11817;SDS011;5966;52.402;5.322;2023-09-18T15:32:46;1.70;;;1.30;;
11817;SDS011;5966;52.402;5.322;2023-09-18T15:44:07;1.73;;;1.07;;
11817;SDS011;5966;52.402;5.322;2023-09-18T15:46:43;1.63;;;1.20;;
11817;SDS011;5966;52.402;5.322;2023-09-18T15:49:16;1.73;;;1.10;;
11817;SDS011;5966;52.402;5.322;2023-09-18T15:52:21;1.30;;;0.80;;
11817;SDS011;5966;52.402;5.322;2023-09-18T15:58:12;3.00;;;1.40;;
11817;SDS011;5966;52.402;5.322;2023-09-18T16:04:44;1.50;;;1.40;;
11817;SDS011;5966;52.402;5.322;2023-09-18T16:10:54;1.40;;;1.30;;
11817;SDS011;5966;52.402;5.322;2023-09-18T16:13:38;1.83;;;1.10;;
11817;SDS011;5966;52.402;5.322;2023-09-18T16:16:15;1.90;;;1.27;;
11817;SDS011;5966;52.402;5.322;2023-09-18T16:18:44;1.50;;;1.40;;
11817;SDS011;5966;52.402;5.322;2023-09-18T16:21:16;2.27;;;1.20;;
11817;SDS011;5966;52.402;5.322;2023-09-18T16:23:44;1.50;;;1.00;;
11817;SDS011;5966;52.402;5.322;2023-09-18T16:26:15;2.93;;;1.43;;
11817;SDS011;5966;52.402;5.322;2023-09-18T16:28:43;3.33;;;1.10;;
11817;SDS011;5966;52.402;5.322;2023-09-18T16:31:13;1.67;;;1.17;;